Myra, West Virginia
Current Conditions -  °F | °C
As of 9:51 PM on Saturday 25 Oct 2014 (Local Time) from KHTS Reporting Station
Clear Clear  
Wind Chill: 59°   Ceiling: Unl
Heat Index: 59°   Visibility: 9mi
Dew Point: 55°   Wind: 6mph
Humidity: 87%   Direction: 210°SSW
Pressure: 29.91"   Gusts: NA
Location:  38.22°N, 82.11°W
Report Text: KHTS 260151Z 21005KT 9SM CLR 15/13 A2991 RMK AO2 SLP125 T01500128
Loading
Personal Weather Stations






























Interactive Weather Map
Tropical Storm Tracking
New forecast layout! Learn more

10-Day Weather Forecast

Advertisements
Track Severe Weather on mobile